Cannon Falls, Minnesota
Current Conditions -  °F | °C
As of 8:33 PM on Saturday 22 Nov 2014 (Local Time) from KSYN Reporting Station
Haze Haze  
Wind Chill: 35°   Ceiling: 400
Heat Index: 40°   Visibility: 2.5mi
Dew Point: 38°   Wind: 7mph
Humidity: 93%   Direction: 160°SSE
Pressure: 29.57"   Gusts: NA
Location:  44.51°N, 92.91°W
Report Text: KSYN 230233Z AUTO 16006KT 2 1/2SM BR OVC004 04/03 A2957 RMK AO2 T00430032
Loading
Personal Weather Stations






























Interactive Weather Map New forecast layout! Learn more

10-Day Weather Forecast

Advertisements
Track Severe Weather on mobile